sensor_id;sensor_type;location;lat;lon;timestamp;P1;durP1;ratioP1;P2;durP2;ratioP2
173;SDS011;75;48.784;9.364;2022-12-07T00:01:28;21.90;;;13.53;;
173;SDS011;75;48.784;9.364;2022-12-07T00:03:56;23.00;;;14.17;;
173;SDS011;75;48.784;9.364;2022-12-07T00:06:27;20.33;;;14.23;;
173;SDS011;75;48.784;9.364;2022-12-07T00:08:54;20.03;;;13.83;;
173;SDS011;75;48.784;9.364;2022-12-07T00:11:21;23.57;;;14.77;;
173;SDS011;75;48.784;9.364;2022-12-07T00:13:53;21.40;;;13.97;;
173;SDS011;75;48.784;9.364;2022-12-07T00:16:21;22.10;;;15.40;;
173;SDS011;75;48.784;9.364;2022-12-07T00:18:49;21.10;;;14.30;;
173;SDS011;75;48.784;9.364;2022-12-07T00:21:18;21.23;;;14.23;;
173;SDS011;75;48.784;9.364;2022-12-07T00:23:46;21.30;;;14.87;;
173;SDS011;75;48.784;9.364;2022-12-07T00:26:24;21.80;;;13.97;;
173;SDS011;75;48.784;9.364;2022-12-07T00:28:52;20.13;;;14.00;;
173;SDS011;75;48.784;9.364;2022-12-07T00:31:21;22.10;;;14.40;;
173;SDS011;75;48.784;9.364;2022-12-07T00:33:49;22.53;;;14.23;;
173;SDS011;75;48.784;9.364;2022-12-07T00:36:18;21.40;;;14.07;;
173;SDS011;75;48.784;9.364;2022-12-07T00:38:45;20.03;;;13.00;;
173;SDS011;75;48.784;9.364;2022-12-07T00:41:17;20.80;;;14.53;;
173;SDS011;75;48.784;9.364;2022-12-07T00:43:44;21.50;;;14.90;;
173;SDS011;75;48.784;9.364;2022-12-07T00:46:12;22.03;;;15.00;;
173;SDS011;75;48.784;9.364;2022-12-07T00:48:40;20.93;;;14.80;;
173;SDS011;75;48.784;9.364;2022-12-07T00:51:08;24.30;;;14.87;;
173;SDS011;75;48.784;9.364;2022-12-07T00:53:36;23.80;;;15.50;;
173;SDS011;75;48.784;9.364;2022-12-07T00:56:07;23.70;;;14.60;;
173;SDS011;75;48.784;9.364;2022-12-07T00:58:34;22.43;;;15.27;;
173;SDS011;75;48.784;9.364;2022-12-07T01:01:02;27.73;;;15.23;;
173;SDS011;75;48.784;9.364;2022-12-07T01:03:30;21.10;;;15.00;;
173;SDS011;75;48.784;9.364;2022-12-07T01:05:57;22.53;;;14.70;;
173;SDS011;75;48.784;9.364;2022-12-07T01:08:25;22.13;;;15.00;;
173;SDS011;75;48.784;9.364;2022-12-07T01:10:59;27.23;;;15.40;;
173;SDS011;75;48.784;9.364;2022-12-07T01:13:27;24.03;;;15.83;;
173;SDS011;75;48.784;9.364;2022-12-07T01:15:58;23.63;;;16.00;;
173;SDS011;75;48.784;9.364;2022-12-07T01:18:27;21.93;;;15.50;;
173;SDS011;75;48.784;9.364;2022-12-07T01:20:58;25.37;;;15.27;;
173;SDS011;75;48.784;9.364;2022-12-07T01:23:26;21.90;;;14.50;;
173;SDS011;75;48.784;9.364;2022-12-07T01:25:54;21.50;;;14.70;;
173;SDS011;75;48.784;9.364;2022-12-07T01:28:21;21.90;;;14.90;;
173;SDS011;75;48.784;9.364;2022-12-07T01:30:56;24.67;;;15.77;;
173;SDS011;75;48.784;9.364;2022-12-07T01:33:23;21.90;;;15.10;;
173;SDS011;75;48.784;9.364;2022-12-07T01:35:51;21.67;;;14.50;;
173;SDS011;75;48.784;9.364;2022-12-07T01:38:18;25.77;;;16.50;;
173;SDS011;75;48.784;9.364;2022-12-07T01:40:45;21.60;;;14.77;;
173;SDS011;75;48.784;9.364;2022-12-07T01:43:20;24.03;;;15.17;;
173;SDS011;75;48.784;9.364;2022-12-07T01:45:47;25.20;;;14.90;;
173;SDS011;75;48.784;9.364;2022-12-07T01:48:15;23.00;;;15.17;;
173;SDS011;75;48.784;9.364;2022-12-07T01:50:44;22.80;;;15.17;;
173;SDS011;75;48.784;9.364;2022-12-07T01:53:13;22.93;;;15.40;;
173;SDS011;75;48.784;9.364;2022-12-07T01:55:42;25.03;;;15.80;;
173;SDS011;75;48.784;9.364;2022-12-07T01:58:10;24.50;;;15.53;;
173;SDS011;75;48.784;9.364;2022-12-07T02:00:38;26.33;;;15.60;;
173;SDS011;75;48.784;9.364;2022-12-07T02:03:52;24.90;;;15.83;;
173;SDS011;75;48.784;9.364;2022-12-07T02:05:53;26.03;;;15.63;;
173;SDS011;75;48.784;9.364;2022-12-07T02:08:21;23.43;;;15.30;;
173;SDS011;75;48.784;9.364;2022-12-07T02:10:49;22.77;;;15.43;;
173;SDS011;75;48.784;9.364;2022-12-07T02:13:17;24.30;;;15.50;;
173;SDS011;75;48.784;9.364;2022-12-07T02:15:51;23.60;;;16.10;;
173;SDS011;75;48.784;9.364;2022-12-07T02:21:03;24.27;;;16.33;;
173;SDS011;75;48.784;9.364;2022-12-07T02:23:40;21.70;;;14.23;;
173;SDS011;75;48.784;9.364;2022-12-07T02:31:26;25.00;;;16.23;;
173;SDS011;75;48.784;9.364;2022-12-07T02:34:06;22.10;;;14.90;;
173;SDS011;75;48.784;9.364;2022-12-07T02:36:38;23.37;;;16.03;;
173;SDS011;75;48.784;9.364;2022-12-07T02:39:07;24.57;;;16.10;;
173;SDS011;75;48.784;9.364;2022-12-07T02:41:38;24.20;;;15.63;;
173;SDS011;75;48.784;9.364;2022-12-07T02:44:08;24.83;;;15.20;;
173;SDS011;75;48.784;9.364;2022-12-07T02:46:42;23.87;;;15.13;;
173;SDS011;75;48.784;9.364;2022-12-07T02:49:11;24.03;;;15.70;;
173;SDS011;75;48.784;9.364;2022-12-07T02:51:39;24.20;;;14.70;;
173;SDS011;75;48.784;9.364;2022-12-07T02:54:18;21.53;;;13.93;;
173;SDS011;75;48.784;9.364;2022-12-07T02:56:47;23.57;;;15.07;;
173;SDS011;75;48.784;9.364;2022-12-07T02:59:30;22.20;;;15.03;;
173;SDS011;75;48.784;9.364;2022-12-07T03:04:38;25.30;;;15.03;;
173;SDS011;75;48.784;9.364;2022-12-07T03:12:10;20.13;;;13.60;;
173;SDS011;75;48.784;9.364;2022-12-07T03:14:41;22.47;;;14.07;;
173;SDS011;75;48.784;9.364;2022-12-07T03:17:13;20.97;;;13.87;;
173;SDS011;75;48.784;9.364;2022-12-07T03:19:41;24.27;;;14.57;;
173;SDS011;75;48.784;9.364;2022-12-07T03:22:10;21.80;;;14.33;;
173;SDS011;75;48.784;9.364;2022-12-07T03:24:42;23.83;;;14.43;;
173;SDS011;75;48.784;9.364;2022-12-07T03:27:14;25.00;;;14.67;;
173;SDS011;75;48.784;9.364;2022-12-07T03:29:47;21.83;;;13.50;;
173;SDS011;75;48.784;9.364;2022-12-07T03:32:20;24.07;;;14.03;;
173;SDS011;75;48.784;9.364;2022-12-07T03:34:52;23.53;;;14.03;;
173;SDS011;75;48.784;9.364;2022-12-07T03:37:32;22.90;;;14.43;;
173;SDS011;75;48.784;9.364;2022-12-07T03:42:46;25.50;;;14.97;;
173;SDS011;75;48.784;9.364;2022-12-07T03:45:13;24.47;;;15.10;;
173;SDS011;75;48.784;9.364;2022-12-07T03:47:52;23.63;;;14.50;;
173;SDS011;75;48.784;9.364;2022-12-07T03:53:13;26.90;;;15.90;;
173;SDS011;75;48.784;9.364;2022-12-07T03:55:42;26.93;;;15.43;;
173;SDS011;75;48.784;9.364;2022-12-07T03:58:11;24.03;;;15.00;;
173;SDS011;75;48.784;9.364;2022-12-07T04:00:40;24.27;;;14.13;;
173;SDS011;75;48.784;9.364;2022-12-07T04:03:08;24.00;;;14.50;;
173;SDS011;75;48.784;9.364;2022-12-07T04:05:35;28.37;;;16.47;;
173;SDS011;75;48.784;9.364;2022-12-07T04:08:03;28.93;;;16.27;;
173;SDS011;75;48.784;9.364;2022-12-07T04:10:30;23.87;;;14.83;;
173;SDS011;75;48.784;9.364;2022-12-07T04:12:57;27.17;;;15.87;;
173;SDS011;75;48.784;9.364;2022-12-07T04:15:25;24.80;;;14.70;;
173;SDS011;75;48.784;9.364;2022-12-07T04:17:52;30.50;;;15.90;;
173;SDS011;75;48.784;9.364;2022-12-07T04:20:21;29.47;;;15.80;;
173;SDS011;75;48.784;9.364;2022-12-07T04:22:48;25.93;;;15.17;;
173;SDS011;75;48.784;9.364;2022-12-07T04:25:16;27.90;;;16.03;;
173;SDS011;75;48.784;9.364;2022-12-07T04:27:43;31.00;;;17.53;;
173;SDS011;75;48.784;9.364;2022-12-07T04:30:10;30.90;;;18.70;;
173;SDS011;75;48.784;9.364;2022-12-07T04:32:38;29.17;;;18.30;;
173;SDS011;75;48.784;9.364;2022-12-07T04:35:05;27.70;;;16.00;;
173;SDS011;75;48.784;9.364;2022-12-07T04:37:33;27.90;;;16.07;;
173;SDS011;75;48.784;9.364;2022-12-07T04:40:00;29.03;;;16.97;;
173;SDS011;75;48.784;9.364;2022-12-07T04:42:27;32.90;;;17.33;;
173;SDS011;75;48.784;9.364;2022-12-07T04:44:55;33.27;;;17.50;;
173;SDS011;75;48.784;9.364;2022-12-07T04:47:22;31.60;;;17.67;;
173;SDS011;75;48.784;9.364;2022-12-07T04:49:49;32.70;;;18.03;;
173;SDS011;75;48.784;9.364;2022-12-07T04:52:17;37.10;;;19.60;;
173;SDS011;75;48.784;9.364;2022-12-07T04:54:44;37.27;;;19.43;;
173;SDS011;75;48.784;9.364;2022-12-07T04:57:11;39.60;;;19.87;;
173;SDS011;75;48.784;9.364;2022-12-07T04:59:39;37.63;;;19.30;;
173;SDS011;75;48.784;9.364;2022-12-07T05:02:06;38.03;;;20.00;;
173;SDS011;75;48.784;9.364;2022-12-07T05:04:33;35.43;;;20.00;;
173;SDS011;75;48.784;9.364;2022-12-07T05:07:01;36.33;;;19.80;;
173;SDS011;75;48.784;9.364;2022-12-07T05:09:28;36.57;;;18.70;;
173;SDS011;75;48.784;9.364;2022-12-07T05:11:55;31.47;;;17.90;;
173;SDS011;75;48.784;9.364;2022-12-07T05:14:23;31.57;;;17.93;;
173;SDS011;75;48.784;9.364;2022-12-07T05:16:50;31.13;;;17.50;;
173;SDS011;75;48.784;9.364;2022-12-07T05:19:19;33.20;;;18.83;;
173;SDS011;75;48.784;9.364;2022-12-07T05:21:47;30.30;;;17.73;;
173;SDS011;75;48.784;9.364;2022-12-07T05:24:15;30.43;;;18.17;;
173;SDS011;75;48.784;9.364;2022-12-07T05:26:43;31.63;;;18.67;;
173;SDS011;75;48.784;9.364;2022-12-07T05:29:12;34.50;;;19.00;;
173;SDS011;75;48.784;9.364;2022-12-07T05:31:39;33.27;;;18.60;;
173;SDS011;75;48.784;9.364;2022-12-07T05:34:07;30.80;;;17.73;;
173;SDS011;75;48.784;9.364;2022-12-07T05:36:34;30.40;;;17.70;;
173;SDS011;75;48.784;9.364;2022-12-07T05:39:02;28.87;;;16.87;;
173;SDS011;75;48.784;9.364;2022-12-07T05:41:29;28.10;;;16.77;;
173;SDS011;75;48.784;9.364;2022-12-07T05:44:15;29.30;;;15.90;;
173;SDS011;75;48.784;9.364;2022-12-07T05:46:43;27.40;;;15.60;;
173;SDS011;75;48.784;9.364;2022-12-07T05:49:10;29.63;;;16.60;;
173;SDS011;75;48.784;9.364;2022-12-07T05:51:38;37.00;;;21.47;;
173;SDS011;75;48.784;9.364;2022-12-07T05:54:05;31.47;;;19.17;;
173;SDS011;75;48.784;9.364;2022-12-07T05:56:32;29.30;;;17.70;;
173;SDS011;75;48.784;9.364;2022-12-07T05:59:00;28.57;;;17.47;;
173;SDS011;75;48.784;9.364;2022-12-07T06:01:46;28.87;;;17.27;;
173;SDS011;75;48.784;9.364;2022-12-07T06:04:13;27.20;;;16.77;;
173;SDS011;75;48.784;9.364;2022-12-07T06:06:40;27.93;;;16.80;;
173;SDS011;75;48.784;9.364;2022-12-07T06:09:08;26.20;;;15.90;;
173;SDS011;75;48.784;9.364;2022-12-07T06:11:35;30.47;;;18.10;;
173;SDS011;75;48.784;9.364;2022-12-07T06:14:21;32.90;;;19.90;;
173;SDS011;75;48.784;9.364;2022-12-07T06:16:49;34.33;;;19.50;;
173;SDS011;75;48.784;9.364;2022-12-07T06:19:16;34.60;;;18.80;;
173;SDS011;75;48.784;9.364;2022-12-07T06:21:43;28.30;;;16.47;;
173;SDS011;75;48.784;9.364;2022-12-07T06:24:11;33.17;;;18.10;;
173;SDS011;75;48.784;9.364;2022-12-07T06:26:39;29.97;;;17.20;;
173;SDS011;75;48.784;9.364;2022-12-07T06:29:07;32.23;;;18.53;;
173;SDS011;75;48.784;9.364;2022-12-07T06:31:34;32.13;;;18.23;;
173;SDS011;75;48.784;9.364;2022-12-07T06:34:03;34.57;;;18.80;;
173;SDS011;75;48.784;9.364;2022-12-07T06:36:31;29.50;;;18.23;;
173;SDS011;75;48.784;9.364;2022-12-07T06:38:58;27.00;;;16.77;;
173;SDS011;75;48.784;9.364;2022-12-07T06:41:26;31.43;;;17.63;;
173;SDS011;75;48.784;9.364;2022-12-07T06:43:53;29.80;;;17.20;;
173;SDS011;75;48.784;9.364;2022-12-07T06:46:21;29.93;;;16.13;;
173;SDS011;75;48.784;9.364;2022-12-07T06:48:48;33.87;;;19.03;;
173;SDS011;75;48.784;9.364;2022-12-07T06:51:16;33.47;;;20.53;;
173;SDS011;75;48.784;9.364;2022-12-07T06:53:43;37.10;;;20.90;;
173;SDS011;75;48.784;9.364;2022-12-07T06:56:10;39.27;;;21.27;;
173;SDS011;75;48.784;9.364;2022-12-07T06:58:38;33.77;;;20.03;;
173;SDS011;75;48.784;9.364;2022-12-07T07:01:13;31.87;;;19.83;;
173;SDS011;75;48.784;9.364;2022-12-07T07:03:41;31.57;;;18.70;;
173;SDS011;75;48.784;9.364;2022-12-07T07:06:09;29.50;;;17.63;;
173;SDS011;75;48.784;9.364;2022-12-07T07:08:36;30.63;;;17.67;;
173;SDS011;75;48.784;9.364;2022-12-07T07:11:04;29.87;;;17.27;;
173;SDS011;75;48.784;9.364;2022-12-07T07:13:31;29.93;;;18.37;;
173;SDS011;75;48.784;9.364;2022-12-07T07:15:59;33.30;;;19.60;;
173;SDS011;75;48.784;9.364;2022-12-07T07:18:27;34.00;;;19.77;;
173;SDS011;75;48.784;9.364;2022-12-07T07:20:54;37.00;;;19.37;;
173;SDS011;75;48.784;9.364;2022-12-07T07:23:22;32.23;;;18.60;;
173;SDS011;75;48.784;9.364;2022-12-07T07:25:49;34.67;;;20.43;;
173;SDS011;75;48.784;9.364;2022-12-07T07:28:17;29.97;;;16.90;;
173;SDS011;75;48.784;9.364;2022-12-07T07:30:44;29.80;;;17.20;;
173;SDS011;75;48.784;9.364;2022-12-07T07:33:12;34.23;;;20.50;;
173;SDS011;75;48.784;9.364;2022-12-07T07:35:39;32.40;;;18.30;;
173;SDS011;75;48.784;9.364;2022-12-07T07:38:07;31.70;;;19.80;;
173;SDS011;75;48.784;9.364;2022-12-07T07:40:34;39.77;;;24.77;;
173;SDS011;75;48.784;9.364;2022-12-07T07:43:02;28.87;;;18.03;;
173;SDS011;75;48.784;9.364;2022-12-07T07:45:29;28.07;;;16.77;;
173;SDS011;75;48.784;9.364;2022-12-07T07:47:57;28.00;;;18.63;;
173;SDS011;75;48.784;9.364;2022-12-07T07:50:24;27.80;;;18.30;;
173;SDS011;75;48.784;9.364;2022-12-07T07:52:51;25.23;;;16.00;;
173;SDS011;75;48.784;9.364;2022-12-07T07:55:19;22.17;;;13.83;;
173;SDS011;75;48.784;9.364;2022-12-07T07:57:46;19.83;;;12.37;;
173;SDS011;75;48.784;9.364;2022-12-07T08:00:14;22.63;;;12.80;;
173;SDS011;75;48.784;9.364;2022-12-07T08:02:41;19.23;;;11.33;;
173;SDS011;75;48.784;9.364;2022-12-07T08:05:12;20.43;;;13.70;;
173;SDS011;75;48.784;9.364;2022-12-07T08:07:40;20.97;;;13.43;;
173;SDS011;75;48.784;9.364;2022-12-07T08:10:09;21.43;;;13.37;;
173;SDS011;75;48.784;9.364;2022-12-07T08:12:37;20.20;;;12.43;;
173;SDS011;75;48.784;9.364;2022-12-07T08:15:26;18.10;;;11.67;;
173;SDS011;75;48.784;9.364;2022-12-07T08:17:53;17.60;;;10.20;;
173;SDS011;75;48.784;9.364;2022-12-07T08:20:21;20.30;;;11.73;;
173;SDS011;75;48.784;9.364;2022-12-07T08:22:48;27.03;;;14.87;;
173;SDS011;75;48.784;9.364;2022-12-07T08:25:16;21.37;;;13.73;;
173;SDS011;75;48.784;9.364;2022-12-07T08:27:43;19.67;;;12.23;;
173;SDS011;75;48.784;9.364;2022-12-07T08:30:11;18.10;;;11.57;;
173;SDS011;75;48.784;9.364;2022-12-07T08:32:38;17.53;;;10.87;;
173;SDS011;75;48.784;9.364;2022-12-07T08:35:06;14.77;;;8.97;;
173;SDS011;75;48.784;9.364;2022-12-07T08:37:34;14.17;;;9.30;;
173;SDS011;75;48.784;9.364;2022-12-07T08:40:01;14.57;;;9.43;;
173;SDS011;75;48.784;9.364;2022-12-07T08:42:29;15.43;;;10.30;;
173;SDS011;75;48.784;9.364;2022-12-07T08:45:05;17.93;;;10.30;;
173;SDS011;75;48.784;9.364;2022-12-07T08:47:33;18.23;;;11.63;;
173;SDS011;75;48.784;9.364;2022-12-07T08:50:01;17.20;;;10.77;;
173;SDS011;75;48.784;9.364;2022-12-07T08:52:30;18.90;;;12.47;;
173;SDS011;75;48.784;9.364;2022-12-07T08:54:58;17.07;;;11.30;;
173;SDS011;75;48.784;9.364;2022-12-07T08:57:27;17.23;;;10.80;;
173;SDS011;75;48.784;9.364;2022-12-07T08:59:54;18.53;;;10.67;;
173;SDS011;75;48.784;9.364;2022-12-07T09:02:22;21.60;;;12.43;;
173;SDS011;75;48.784;9.364;2022-12-07T09:04:49;19.87;;;11.63;;
173;SDS011;75;48.784;9.364;2022-12-07T09:07:16;20.63;;;12.30;;
173;SDS011;75;48.784;9.364;2022-12-07T09:09:44;24.50;;;14.67;;
173;SDS011;75;48.784;9.364;2022-12-07T09:12:11;48.87;;;26.60;;
173;SDS011;75;48.784;9.364;2022-12-07T09:14:39;20.60;;;12.40;;
173;SDS011;75;48.784;9.364;2022-12-07T09:17:07;21.67;;;13.20;;
173;SDS011;75;48.784;9.364;2022-12-07T09:19:34;19.00;;;12.37;;
173;SDS011;75;48.784;9.364;2022-12-07T09:22:02;18.53;;;12.27;;
173;SDS011;75;48.784;9.364;2022-12-07T09:24:31;17.57;;;10.90;;
173;SDS011;75;48.784;9.364;2022-12-07T09:26:58;19.43;;;11.83;;
173;SDS011;75;48.784;9.364;2022-12-07T09:29:26;18.13;;;10.90;;
173;SDS011;75;48.784;9.364;2022-12-07T09:31:53;17.20;;;11.73;;
173;SDS011;75;48.784;9.364;2022-12-07T09:34:20;18.63;;;13.17;;
173;SDS011;75;48.784;9.364;2022-12-07T09:36:48;22.67;;;12.37;;
173;SDS011;75;48.784;9.364;2022-12-07T09:39:15;19.83;;;13.60;;
173;SDS011;75;48.784;9.364;2022-12-07T09:41:43;16.67;;;11.60;;
173;SDS011;75;48.784;9.364;2022-12-07T09:44:13;16.83;;;8.70;;
173;SDS011;75;48.784;9.364;2022-12-07T09:46:42;17.33;;;11.10;;
173;SDS011;75;48.784;9.364;2022-12-07T09:49:15;17.20;;;10.97;;
173;SDS011;75;48.784;9.364;2022-12-07T09:51:43;16.73;;;11.20;;
173;SDS011;75;48.784;9.364;2022-12-07T09:54:12;15.10;;;9.30;;
173;SDS011;75;48.784;9.364;2022-12-07T09:56:40;14.10;;;9.47;;
173;SDS011;75;48.784;9.364;2022-12-07T09:59:12;14.63;;;10.10;;
173;SDS011;75;48.784;9.364;2022-12-07T10:01:40;16.30;;;9.33;;
173;SDS011;75;48.784;9.364;2022-12-07T10:04:12;16.20;;;9.90;;
173;SDS011;75;48.784;9.364;2022-12-07T10:06:41;13.30;;;8.37;;
173;SDS011;75;48.784;9.364;2022-12-07T10:09:16;13.40;;;8.50;;
173;SDS011;75;48.784;9.364;2022-12-07T10:12:03;15.90;;;9.33;;
173;SDS011;75;48.784;9.364;2022-12-07T10:14:33;15.13;;;9.57;;
173;SDS011;75;48.784;9.364;2022-12-07T10:17:00;14.23;;;9.17;;
173;SDS011;75;48.784;9.364;2022-12-07T10:19:29;18.57;;;11.40;;
173;SDS011;75;48.784;9.364;2022-12-07T10:24:27;17.50;;;9.70;;
173;SDS011;75;48.784;9.364;2022-12-07T10:26:54;14.10;;;9.17;;
173;SDS011;75;48.784;9.364;2022-12-07T10:29:32;15.30;;;8.97;;
173;SDS011;75;48.784;9.364;2022-12-07T10:32:05;14.33;;;8.53;;
173;SDS011;75;48.784;9.364;2022-12-07T10:34:34;14.37;;;8.87;;
173;SDS011;75;48.784;9.364;2022-12-07T10:39:52;15.80;;;9.23;;
173;SDS011;75;48.784;9.364;2022-12-07T10:42:24;14.43;;;8.97;;
173;SDS011;75;48.784;9.364;2022-12-07T10:48:08;15.03;;;9.20;;
173;SDS011;75;48.784;9.364;2022-12-07T10:53:20;14.10;;;9.03;;
173;SDS011;75;48.784;9.364;2022-12-07T10:58:31;16.93;;;9.47;;
173;SDS011;75;48.784;9.364;2022-12-07T11:06:43;14.63;;;8.03;;
173;SDS011;75;48.784;9.364;2022-12-07T11:09:26;12.17;;;7.67;;
173;SDS011;75;48.784;9.364;2022-12-07T11:19:59;14.37;;;8.63;;
173;SDS011;75;48.784;9.364;2022-12-07T11:22:42;11.80;;;7.77;;
173;SDS011;75;48.784;9.364;2022-12-07T11:30:47;11.97;;;8.10;;
173;SDS011;75;48.784;9.364;2022-12-07T11:33:19;10.83;;;7.70;;
173;SDS011;75;48.784;9.364;2022-12-07T11:35:52;12.57;;;8.10;;
173;SDS011;75;48.784;9.364;2022-12-07T11:38:31;13.73;;;8.47;;
173;SDS011;75;48.784;9.364;2022-12-07T11:41:01;15.37;;;8.43;;
173;SDS011;75;48.784;9.364;2022-12-07T11:46:23;17.90;;;9.80;;
173;SDS011;75;48.784;9.364;2022-12-07T11:51:24;26.10;;;12.27;;
173;SDS011;75;48.784;9.364;2022-12-07T11:53:54;13.80;;;7.70;;
173;SDS011;75;48.784;9.364;2022-12-07T11:56:23;13.23;;;7.70;;
173;SDS011;75;48.784;9.364;2022-12-07T11:59:00;20.13;;;9.97;;
173;SDS011;75;48.784;9.364;2022-12-07T12:06:34;18.50;;;8.23;;
173;SDS011;75;48.784;9.364;2022-12-07T12:09:04;11.47;;;7.37;;
173;SDS011;75;48.784;9.364;2022-12-07T12:17:08;15.00;;;8.40;;
173;SDS011;75;48.784;9.364;2022-12-07T12:22:18;13.40;;;8.10;;
173;SDS011;75;48.784;9.364;2022-12-07T12:24:48;13.60;;;9.43;;
173;SDS011;75;48.784;9.364;2022-12-07T12:27:27;14.07;;;9.27;;
173;SDS011;75;48.784;9.364;2022-12-07T12:29:57;14.53;;;9.70;;
173;SDS011;75;48.784;9.364;2022-12-07T12:32:32;18.30;;;12.10;;
173;SDS011;75;48.784;9.364;2022-12-07T12:35:20;15.47;;;10.93;;
173;SDS011;75;48.784;9.364;2022-12-07T12:37:50;23.33;;;11.93;;
173;SDS011;75;48.784;9.364;2022-12-07T12:42:49;18.27;;;10.33;;
173;SDS011;75;48.784;9.364;2022-12-07T12:45:18;15.53;;;9.97;;
173;SDS011;75;48.784;9.364;2022-12-07T12:50:24;17.07;;;11.70;;
173;SDS011;75;48.784;9.364;2022-12-07T12:52:53;17.97;;;12.27;;
173;SDS011;75;48.784;9.364;2022-12-07T12:55:26;20.07;;;13.10;;
173;SDS011;75;48.784;9.364;2022-12-07T13:00:42;20.87;;;12.43;;
173;SDS011;75;48.784;9.364;2022-12-07T13:03:21;21.07;;;13.47;;
173;SDS011;75;48.784;9.364;2022-12-07T13:05:49;20.73;;;13.30;;
173;SDS011;75;48.784;9.364;2022-12-07T13:08:37;17.10;;;11.33;;
173;SDS011;75;48.784;9.364;2022-12-07T13:16:50;26.10;;;14.97;;
173;SDS011;75;48.784;9.364;2022-12-07T13:22:03;18.27;;;11.43;;
173;SDS011;75;48.784;9.364;2022-12-07T13:24:30;18.47;;;11.50;;
173;SDS011;75;48.784;9.364;2022-12-07T13:26:58;17.00;;;10.80;;
173;SDS011;75;48.784;9.364;2022-12-07T13:29:25;16.77;;;10.33;;
173;SDS011;75;48.784;9.364;2022-12-07T13:31:56;19.23;;;11.07;;
173;SDS011;75;48.784;9.364;2022-12-07T13:34:38;17.70;;;11.10;;
173;SDS011;75;48.784;9.364;2022-12-07T13:44:53;21.80;;;14.00;;
173;SDS011;75;48.784;9.364;2022-12-07T13:47:30;15.40;;;10.37;;
173;SDS011;75;48.784;9.364;2022-12-07T13:49:58;21.00;;;11.30;;
173;SDS011;75;48.784;9.364;2022-12-07T13:52:27;16.60;;;10.67;;
173;SDS011;75;48.784;9.364;2022-12-07T13:57:25;15.30;;;9.90;;
173;SDS011;75;48.784;9.364;2022-12-07T13:59:53;15.73;;;10.97;;
173;SDS011;75;48.784;9.364;2022-12-07T14:02:30;18.63;;;11.90;;
173;SDS011;75;48.784;9.364;2022-12-07T14:07:34;16.73;;;11.30;;
173;SDS011;75;48.784;9.364;2022-12-07T14:10:05;16.00;;;10.73;;
173;SDS011;75;48.784;9.364;2022-12-07T14:12:32;18.60;;;11.27;;
173;SDS011;75;48.784;9.364;2022-12-07T14:15:02;18.00;;;11.00;;
173;SDS011;75;48.784;9.364;2022-12-07T14:17:30;15.83;;;10.40;;
173;SDS011;75;48.784;9.364;2022-12-07T14:19:59;21.97;;;12.30;;
173;SDS011;75;48.784;9.364;2022-12-07T14:22:30;18.80;;;11.50;;
173;SDS011;75;48.784;9.364;2022-12-07T14:24:59;16.33;;;10.83;;
173;SDS011;75;48.784;9.364;2022-12-07T14:27:30;19.47;;;12.30;;
173;SDS011;75;48.784;9.364;2022-12-07T14:30:00;19.90;;;12.00;;
173;SDS011;75;48.784;9.364;2022-12-07T14:32:28;19.70;;;13.00;;
173;SDS011;75;48.784;9.364;2022-12-07T14:35:31;16.83;;;11.10;;
173;SDS011;75;48.784;9.364;2022-12-07T14:37:50;17.27;;;12.07;;
173;SDS011;75;48.784;9.364;2022-12-07T14:40:27;16.57;;;11.17;;
173;SDS011;75;48.784;9.364;2022-12-07T14:43:00;24.70;;;15.87;;
173;SDS011;75;48.784;9.364;2022-12-07T14:45:28;18.20;;;11.53;;
173;SDS011;75;48.784;9.364;2022-12-07T14:47:55;16.97;;;10.87;;
173;SDS011;75;48.784;9.364;2022-12-07T14:50:22;16.30;;;9.80;;
173;SDS011;75;48.784;9.364;2022-12-07T14:52:59;18.67;;;11.63;;
173;SDS011;75;48.784;9.364;2022-12-07T14:55:31;28.80;;;16.87;;
173;SDS011;75;48.784;9.364;2022-12-07T14:57:58;23.30;;;15.60;;
173;SDS011;75;48.784;9.364;2022-12-07T15:00:26;20.93;;;12.83;;
173;SDS011;75;48.784;9.364;2022-12-07T15:02:54;21.43;;;12.63;;
173;SDS011;75;48.784;9.364;2022-12-07T15:05:22;19.70;;;12.60;;
173;SDS011;75;48.784;9.364;2022-12-07T15:07:49;22.80;;;12.10;;
173;SDS011;75;48.784;9.364;2022-12-07T15:12:44;24.53;;;13.47;;
173;SDS011;75;48.784;9.364;2022-12-07T15:15:12;24.70;;;13.93;;
173;SDS011;75;48.784;9.364;2022-12-07T15:17:40;22.60;;;13.10;;
173;SDS011;75;48.784;9.364;2022-12-07T15:20:09;21.03;;;12.80;;
173;SDS011;75;48.784;9.364;2022-12-07T15:22:37;19.13;;;13.10;;
173;SDS011;75;48.784;9.364;2022-12-07T15:25:05;21.63;;;12.43;;
173;SDS011;75;48.784;9.364;2022-12-07T15:27:32;21.30;;;13.17;;
173;SDS011;75;48.784;9.364;2022-12-07T15:30:00;20.30;;;12.77;;
173;SDS011;75;48.784;9.364;2022-12-07T15:32:27;21.30;;;13.50;;
173;SDS011;75;48.784;9.364;2022-12-07T15:34:55;27.97;;;16.53;;
173;SDS011;75;48.784;9.364;2022-12-07T15:37:22;23.73;;;15.20;;
173;SDS011;75;48.784;9.364;2022-12-07T15:39:49;22.20;;;12.73;;
173;SDS011;75;48.784;9.364;2022-12-07T15:42:17;22.20;;;14.67;;
173;SDS011;75;48.784;9.364;2022-12-07T15:44:44;21.23;;;13.40;;
173;SDS011;75;48.784;9.364;2022-12-07T15:47:30;25.47;;;14.60;;
173;SDS011;75;48.784;9.364;2022-12-07T15:49:58;25.37;;;15.23;;
173;SDS011;75;48.784;9.364;2022-12-07T15:52:25;28.80;;;16.47;;
173;SDS011;75;48.784;9.364;2022-12-07T15:54:53;30.03;;;16.30;;
173;SDS011;75;48.784;9.364;2022-12-07T15:57:20;33.70;;;19.67;;
173;SDS011;75;48.784;9.364;2022-12-07T15:59:47;27.57;;;16.60;;
173;SDS011;75;48.784;9.364;2022-12-07T16:02:15;31.77;;;16.83;;
173;SDS011;75;48.784;9.364;2022-12-07T16:04:42;31.57;;;15.80;;
173;SDS011;75;48.784;9.364;2022-12-07T16:07:09;25.03;;;14.93;;
173;SDS011;75;48.784;9.364;2022-12-07T16:09:38;25.17;;;15.13;;
173;SDS011;75;48.784;9.364;2022-12-07T16:12:05;25.47;;;15.93;;
173;SDS011;75;48.784;9.364;2022-12-07T16:14:32;25.10;;;15.63;;
173;SDS011;75;48.784;9.364;2022-12-07T16:17:00;37.93;;;25.43;;
173;SDS011;75;48.784;9.364;2022-12-07T16:19:27;31.50;;;19.50;;
173;SDS011;75;48.784;9.364;2022-12-07T16:21:55;95.93;;;46.80;;
173;SDS011;75;48.784;9.364;2022-12-07T16:24:22;50.50;;;27.33;;
173;SDS011;75;48.784;9.364;2022-12-07T16:26:50;29.53;;;18.07;;
173;SDS011;75;48.784;9.364;2022-12-07T16:29:18;30.97;;;17.17;;
173;SDS011;75;48.784;9.364;2022-12-07T16:31:46;29.10;;;17.40;;
173;SDS011;75;48.784;9.364;2022-12-07T16:34:14;31.70;;;20.20;;
173;SDS011;75;48.784;9.364;2022-12-07T16:36:41;30.33;;;18.67;;
173;SDS011;75;48.784;9.364;2022-12-07T16:39:09;40.33;;;23.20;;
173;SDS011;75;48.784;9.364;2022-12-07T16:41:36;36.00;;;19.70;;
173;SDS011;75;48.784;9.364;2022-12-07T16:44:04;26.03;;;16.07;;
173;SDS011;75;48.784;9.364;2022-12-07T16:46:32;26.53;;;16.70;;
173;SDS011;75;48.784;9.364;2022-12-07T16:49:00;35.60;;;21.07;;
173;SDS011;75;48.784;9.364;2022-12-07T16:51:27;28.03;;;17.20;;
173;SDS011;75;48.784;9.364;2022-12-07T16:53:55;26.93;;;16.33;;
173;SDS011;75;48.784;9.364;2022-12-07T16:56:22;25.10;;;15.30;;
173;SDS011;75;48.784;9.364;2022-12-07T16:58:51;44.47;;;27.50;;
173;SDS011;75;48.784;9.364;2022-12-07T17:01:19;38.93;;;22.40;;
173;SDS011;75;48.784;9.364;2022-12-07T17:03:48;28.80;;;18.70;;
173;SDS011;75;48.784;9.364;2022-12-07T17:06:19;27.57;;;16.50;;
173;SDS011;75;48.784;9.364;2022-12-07T17:08:47;25.73;;;15.40;;
173;SDS011;75;48.784;9.364;2022-12-07T17:11:20;25.13;;;14.40;;
173;SDS011;75;48.784;9.364;2022-12-07T17:13:48;24.73;;;13.90;;
173;SDS011;75;48.784;9.364;2022-12-07T17:16:34;26.10;;;13.43;;
173;SDS011;75;48.784;9.364;2022-12-07T17:19:05;30.23;;;19.07;;
173;SDS011;75;48.784;9.364;2022-12-07T17:21:32;21.43;;;13.97;;
173;SDS011;75;48.784;9.364;2022-12-07T17:24:00;20.70;;;13.60;;
173;SDS011;75;48.784;9.364;2022-12-07T17:26:28;21.50;;;13.50;;
173;SDS011;75;48.784;9.364;2022-12-07T17:28:56;24.63;;;12.53;;
173;SDS011;75;48.784;9.364;2022-12-07T17:31:24;20.80;;;12.03;;